Hoppa till innehåll

METAR väder och rapporter - ESKN

Nedan listas information från vald flygplats. Andra METARs finns längre ned på sidan. Kontakta oss om någon saknas eller skriv in egen ICAO-kod.

Coded METAR: 2021/12/04 03:50 ESKN 040350Z 01004KT 9999 FEW003 SCT022 BKN026 M06/M06 Q1002

Weather Report @ ESKN

Issued: 4th Dec 2021 at 04:50 CET

Wind: light breeze from the North (010 degrees) at 4 knots (5 mph, 7 kph, 2 mps, Force 2)
Visibility: 10km or more
Cloud: a few clouds at 300 feet
Cloud: scattered at 2200 feet
Cloud: broken at 2600 feet
Temperature: 21F / -6C
Dewpoint: 21F / -6C
Humidity: 100%
Pressure: 1002 hPa

Coded TAF: 2021/12/04 00:09 TAF AMD TAF AMD ESKN 040002Z 0400/0424 09006KT 0500 FZFG VV002 PROB40 0400/0402 8000 NSW BKN007 BECMG 0402/0404 9999 NSW BKN020 PROB40 0404/0424 2500 -SN BKN009

Weather Forecast @ ESKN

Issued: 4th Dec 2021 at 01:09 CET

Valid : 1st Jan 01:00 until 01:00 CET

01:00 CET
DATA TOO OLD TO BE USEFUL !

Internet delivery of weather data is not secure or reliable enough for operational purposes.

NEVER RELY ON THE OUTPUT OF THIS SCRIPT TO MAKE DECISIONS ABOUT ANYTHING IN WHICH THE WEATHER FORECAST AND ITS INTERPRETATION COULD BE AN ISSUE OF SAFETY.

Andra intressanta METARs

Klicka på önskad rubrik nedan för att visa nuvarande väder för den platsen.

Avstånd från stationen: NO 27kmESGG - Göteborg (Landvetter)
Uppdaterad: 2021-12-04 04:20
 Vind från ONO
Vind: ONO 19 km/h
Temperatur: -4°C
Vindavkylning: -10°C
Daggpunkt: -5°C
Luftfuktighet: 93%
Barometer: 996 hPa
Summering: Light Snow
Moln: Genommulet
Sikt: 10 km
Molninformation: Övervägande molnigt 488 m
Genommulet 2073 m
2021/12/04 03:20 ESGG 040320Z 07010KT 9999 -SN BKN016 OVC068 M04/M05 Q0996
Light snow, Genommulet
Light snow
Genommulet
  Visa detaljer för Göteborg (Landvetter)
Avstånd från stationen: N 28kmESGP - Göteborg (Säve)
Uppdaterad: 2021-12-04 05:00
 
unable to load ESGP data RC=404 Not Found
unable to load ESGP data RC=404 Not Found
  Visa detaljer för Göteborg (Säve)
Avstånd från stationen: NO 419kmESSA - Stockholm (Arlanda)
Uppdaterad: 2021-12-04 04:20
 Vind från N
Vind: N 6 km/h
Temperatur: -12°C
Daggpunkt: -14°C
Luftfuktighet: 85%
Barometer: 1002 hPa
Summering: Klart
Sikt: mer än 10 km
2021/12/04 03:20 ESSA 040320Z 01003KT CAVOK M12/M14 Q1002 NOSIG
Klart
Klart
  Visa detaljer för Stockholm (Arlanda)
Avstånd från stationen: ONO 404kmESSB - Stockholm (Bromma)
Uppdaterad: 2021-12-04 02:20
Ej aktuell
 Vind från calm
Vind: Vindstilla
Temperatur: -8°C
Daggpunkt: -9°C
Luftfuktighet: 93%
Barometer: 1002 hPa
Moln: Klart
Sikt: 10 km
2021/12/04 01:20 ESSB 040120Z AUTO 00000KT 9999 NCD M08/M09 Q1002
Klart
Klart
  Visa detaljer för Stockholm (Bromma)
Avstånd från stationen: ONO 323kmESKN - Stockholm (Skavsta)
Uppdaterad: 2021-12-04 04:20
 Vind från NNO
Vind: NNO 9 km/h
Temperatur: -6°C
Vindavkylning: -11°C
Daggpunkt: -6°C
Luftfuktighet: 100%
Barometer: 1001 hPa
Moln: Övervägande molnigt
Sikt: 10 km
Molninformation: Övervägande molnigt 61 m
2021/12/04 03:20 ESKN 040320Z 02005KT 9999 BKN002 M06/M06 Q1001
Övervägande molnigt
Övervägande molnigt
  Visa detaljer för Stockholm (Skavsta)
Avstånd från stationen: SSO 238kmESMS - Malmö flygplats (Sturup)
Uppdaterad: 2021-12-04 04:20
 Vind från VSV
Vind: VSV 19 km/h
Temperatur: 5°C
Vindavkylning: 1°C
Daggpunkt: 4°C
Luftfuktighet: 93%
Barometer: 994 hPa
Moln: Genommulet
Sikt: 9 km
Molninformation: Genommulet 183 m
2021/12/04 03:20 ESMS 040320Z 24010KT 9000 OVC006 05/04 Q0994
Genommulet
Genommulet
  Visa detaljer för Malmö flygplats (Sturup)
Avstånd från stationen: O 382kmESSV - Visby flygplats
Uppdaterad: 2021-12-04 00:50
Ej aktuell
 Vind från O
Vind: O 6 km/h
Temperatur: -11°C
Daggpunkt: -12°C
Luftfuktighet: 92%
Barometer: 1000 hPa
Moln: Klart
Sikt: 10 km
2021/12/03 23:50 ESSV 032350Z AUTO 09003KT 9999 NCD M11/M12 Q1000
Klart
Klart
  Visa detaljer för Visby flygplats
Avstånd från stationen: NNO 92kmESGT - Trollhättan
Uppdaterad: 2021-12-03 16:20
Ej aktuell
 Vind från O
Vind: O 9 km/h
Temperatur: -7°C
Vindavkylning: -12°C
Daggpunkt: -8°C
Luftfuktighet: 93%
Barometer: 999 hPa
Moln: Klart
Sikt: 10 km
2021/12/03 15:20 ESGT 031520Z AUTO 09005KT 9999 NCD M07/M08 Q0999
Klart
Klart
  Visa detaljer för Trollhättan
Avstånd från stationen: ONO 129kmESGJ - Jönköpings flygplats
Uppdaterad: 2021-12-04 04:20
 Vind från NO
Vind: NO 13 km/h
Temperatur: -5°C
Vindavkylning: -10°C
Daggpunkt: -6°C
Luftfuktighet: 93%
Barometer: 997 hPa
Summering: Light Snow
Moln: Genommulet
Sikt: 10 km
Molninformation: Genommulet 549 m
2021/12/04 03:20 ESGJ 040320Z AUTO 05007KT 9999 -SN VV018 M05/M06 Q0997
Light snow, Genommulet
Light snow
Genommulet
  Visa detaljer för Jönköpings flygplats
Avstånd från stationen: NNO 229kmESOK - Karlstad
Uppdaterad: 2021-12-04 02:50
Ej aktuell
 Vind från NO
Vind: NO 13 km/h
Temperatur: -8°C
Vindavkylning: -13°C
Daggpunkt: -8°C
Luftfuktighet: 100%
Barometer: 1000 hPa
Moln: Klart
Sikt: 10 km
2021/12/04 01:50 ESOK 040150Z AUTO 05007KT 9999 NCD M08/M08 Q1000
Klart
Klart
  Visa detaljer för Karlstad
Avstånd från stationen: N 643kmESNZ - Östersund (Frösön)
Uppdaterad: 2021-12-04 00:50
Ej aktuell
 Vind från O
Vind: O 6 km/h
Temperatur: -11°C
Daggpunkt: -12°C
Luftfuktighet: 92%
Barometer: 1001 hPa
Summering: Light Snow
Moln: Genommulet
Sikt: 5 km
Molninformation: Genommulet 549 m
2021/12/03 23:50 ESNZ 032350Z AUTO 10003KT 4600 -SN VV018 M11/M12 Q1001
Light snow, Genommulet
Light snow
Genommulet
  Visa detaljer för Östersund (Frösön)
Avstånd från stationen: SSO 216kmEKCH - Köpenhamn (Kastrup)
Uppdaterad: 2021-12-04 03:50
 Vind från VSV
Vind: VSV 24 km/h
Temperatur: 5°C
Vindavkylning: 1°C
Daggpunkt: 4°C
Luftfuktighet: 93%
Barometer: 995 hPa
Moln: Övervägande molnigt
Sikt: 10 km
Molninformation: Några få moln 396 m
Övervägande molnigt 1067 m
2021/12/04 02:50 EKCH 040250Z 24013KT 9999 FEW013 BKN035 05/04 Q0995 BECMG SCT008
Övervägande molnigt
Övervägande molnigt
  Visa detaljer för Köpenhamn (Kastrup)
Avstånd från stationen: SV 263kmEKBI - Billund Airport
Uppdaterad: 2021-12-03 07:50
Ej aktuell
 Vind från VSV
Vind: VSV 24 km/h
Temperatur: 1°C
Vindavkylning: -4°C
Daggpunkt: 0°C
Luftfuktighet: 93%
Barometer: 1000 hPa
Summering: Snow showers, Regn
Moln: Övervägande molnigt
Sikt: 5 km
Molninformation: Övervägande molnigt 274 m
2021/12/03 06:50 EKBI 030650Z 25013KT 220V280 5000 SHSNRA BKN009CB 01/00 Q1000
Snow showers, Regn, Övervägande molnigt
Snow showers
Regn
Övervägande molnigt
  Visa detaljer för Billund Airport
Avstånd från stationen: N 302kmENGM - Oslo (Gardermoen)
Uppdaterad: 2021-12-04 03:50
 Vind från N
Vind: N 4 km/h
Temperatur: -8°C
Daggpunkt: -9°C
Luftfuktighet: 93%
Barometer: 1001 hPa
Moln: Övervägande molnigt
Sikt: 10 km
Molninformation: Delvis molnigt 488 m
Övervägande molnigt 549 m
2021/12/04 02:50 ENGM 040250Z 01002KT 9999 SCT016 BKN018 M08/M09 Q1001
Övervägande molnigt
Övervägande molnigt
  Visa detaljer för Oslo (Gardermoen)
Avstånd från stationen: NO 540kmEFMA - Mariehamn / Åland
Uppdaterad: 2021-12-04 04:20
 Vind från NNO
Vind: NNO 7 km/h
Temperatur: -5°C
Vindavkylning: -8°C
Daggpunkt: -7°C
Luftfuktighet: 86%
Barometer: 1003 hPa
Moln: Övervägande molnigt
Sikt: 10 km
Molninformation: Övervägande molnigt 396 m
2021/12/04 03:20 EFMA 040320Z AUTO 02004KT 9999 BKN013 M05/M07 Q1003
Övervägande molnigt
Övervägande molnigt
  Visa detaljer för Mariehamn / Åland
Avstånd från stationen: S 558kmEDDT - Berlin (Tegel), Germany
Uppdaterad: 2021-12-04 05:01
 
unable to load EDDT data RC=404 Not Found
unable to load EDDT data RC=404 Not Found
  Visa detaljer för Berlin (Tegel), Germany
Avstånd från stationen: SV 737kmEHAM - Amsterdam (Schiphol)
Uppdaterad: 2021-12-04 03:55
 Vind från S
Vind: S 13 km/h
Temperatur: 5°C
Vindavkylning: 2°C
Daggpunkt: 5°C
Luftfuktighet: 100%
Barometer: 997 hPa
Summering: Dimmigt
Moln: Genommulet
Sikt: 1 km
Molninformation: Några få moln 0 m
Genommulet 30 m
2021/12/04 02:55 EHAM 040255Z 18007KT 150V210 1200 R18C/1200N R27/1100N R18R/1200N R06/1300N BR FEW000 OVC001 05/05 Q0997 NOSIG
Dimmigt, Genommulet
Dimmigt
Genommulet
  Visa detaljer för Amsterdam (Schiphol)
Avstånd från stationen: ONO 808kmEFHK - Helsingfors (Vantaa)
Uppdaterad: 2021-12-04 04:20
 Vind från N
Vind: N 13 km/h
Temperatur: -5°C
Vindavkylning: -10°C
Daggpunkt: -6°C
Luftfuktighet: 93%
Barometer: 1002 hPa
Summering: Light Snow
Moln: Övervägande molnigt
Sikt: 10 km
Molninformation: Övervägande molnigt 396 m
2021/12/04 03:20 EFHK 040320Z 01007KT 9999 -SN BKN013 M05/M06 Q1002 TEMPO SCT013 BKN030
Light snow, Övervägande molnigt
Light snow
Övervägande molnigt
  Visa detaljer för Helsingfors (Vantaa)
Avstånd från stationen: SSV 537kmEDDW - Bremen
Uppdaterad: 2021-12-04 04:20
 Vind från SSV
Vind: SSV 13 km/h
Temperatur: 4°C
Vindavkylning: 1°C
Daggpunkt: 3°C
Luftfuktighet: 93%
Barometer: 998 hPa
Moln: Övervägande molnigt
Sikt: 10 km
Molninformation: Övervägande molnigt 213 m
2021/12/04 03:20 EDDW 040320Z 21007KT 9999 BKN007 04/03 Q0998
Övervägande molnigt
Övervägande molnigt
  Visa detaljer för Bremen
Avstånd från stationen: SSV 861kmEDDF - Frankfurt am Main
Uppdaterad: 2021-12-04 04:20
 Vind från SSO
Vind: SSO 7 km/h
Temperatur: 0°C
Vindavkylning: -3°C
Daggpunkt: 0°C
Luftfuktighet: 100%
Barometer: 1001 hPa
Summering: Light Snow
Moln: Genommulet
Sikt: 5 km
Molninformation: Övervägande molnigt 152 m
Genommulet 427 m
2021/12/04 03:20 EDDF 040320Z 16004KT 130V190 4500 -SN BKN005 OVC014 00/M00 Q1001 RESN BECMG 6000 -SNRA
Light snow, Genommulet
Light snow
Genommulet
  Visa detaljer för Frankfurt am Main
Avstånd från stationen: SV 880kmEBBR - Bryssel international
Uppdaterad: 2021-12-04 03:50
 Vind från calm
Vind: Vindstilla
Temperatur: 4°C
Daggpunkt: 3°C
Luftfuktighet: 93%
Barometer: 998 hPa
Moln: Övervägande molnigt
Sikt: 10 km
Molninformation: Övervägande molnigt 244 m
2021/12/04 02:50 EBBR 040250Z 00000KT 9999 BKN008 04/03 Q0998 NOSIG
Övervägande molnigt
Övervägande molnigt
  Visa detaljer för Bryssel international
Avstånd från stationen: SV 738kmEHAM - Amsterdam (Schiphol)
Uppdaterad: 2021-12-04 03:55
 Vind från S
Vind: S 13 km/h
Temperatur: 5°C
Vindavkylning: 2°C
Daggpunkt: 5°C
Luftfuktighet: 100%
Barometer: 997 hPa
Summering: Dimmigt
Moln: Genommulet
Sikt: 1 km
Molninformation: Några få moln 0 m
Genommulet 30 m
2021/12/04 02:55 EHAM 040255Z 18007KT 150V210 1200 R18C/1200N R27/1100N R18R/1200N R06/1300N BR FEW000 OVC001 05/05 Q0997 NOSIG
Dimmigt, Genommulet
Dimmigt
Genommulet
  Visa detaljer för Amsterdam (Schiphol)
Avstånd från stationen: SV 1044kmEGLL - London (Heathrow)
Uppdaterad: 2021-12-04 04:20
 Vind från SSV
Vind: SSV 7 km/h
Temperatur: 5°C
Vindavkylning: 3°C
Daggpunkt: 5°C
Luftfuktighet: 100%
Barometer: 997 hPa
Summering: Dimmigt
Moln: Genommulet
Sikt: 1 km
Molninformation: Genommulet 61 m
2021/12/04 03:20 EGLL 040320Z AUTO 20004KT 1100 R27L/1300U BR OVC002 05/05 Q0997
Dimmigt, Genommulet
Dimmigt
Genommulet
  Visa detaljer för London (Heathrow)
Avstånd från stationen: SV 1132kmLFPG - Paris (Charles de Gaulle)
Uppdaterad: 2021-12-04 04:00
 Vind från VSV
Vind: VSV 26 km/h
Temperatur: 11°C
Daggpunkt: 11°C
Luftfuktighet: 100%
Barometer: 998 hPa
Summering: Lätt duggregn
Moln: Övervägande molnigt
Sikt: 5 km
Molninformation: Några få moln 152 m
Övervägande molnigt 183 m
2021/12/04 03:00 LFPG 040300Z 25014KT 5000 -DZ FEW005 BKN006 11/11 Q0998 NOSIG
Lätt duggregn, Övervägande molnigt
Lätt duggregn
Övervägande molnigt
  Visa detaljer för Paris (Charles de Gaulle)
Avstånd från stationen: SSV 1142kmLSZH - Zürich Airport
Uppdaterad: 2021-12-04 04:20
 Vind från S
Vind: S 19 km/h
Temperatur: 1°C
Vindavkylning: -4°C
Daggpunkt: 0°C
Luftfuktighet: 93%
Barometer: 1006 hPa
Summering: Light Snow
Moln: Övervägande molnigt
Sikt: 8 km
Molninformation: Några få moln 274 m
Övervägande molnigt 427 m
2021/12/04 03:20 LSZH 040320Z AUTO 19010KT 8000 -SN FEW009 BKN014 01/00 Q1006 BECMG RA
Light snow, Övervägande molnigt
Light snow
Övervägande molnigt
  Visa detaljer för Zürich Airport
Avstånd från stationen: S 1749kmLIRF - Rome Airport (Fiumicino - Leonardo da Vinci)
Uppdaterad: 2021-12-04 03:50
 Vind från N
Vind: N 4 km/h
Temperatur: 5°C
Daggpunkt: 1°C
Luftfuktighet: 76%
Barometer: 1013 hPa
Summering: Klart
Sikt: mer än 10 km
2021/12/04 02:50 LIRF 040250Z 36002KT CAVOK 05/01 Q1013 NOSIG
Klart
Klart
  Visa detaljer för Rome Airport (Fiumicino - Leonardo da Vinci)
Avstånd från stationen: SO 2679kmLTAI - Antalya
Uppdaterad: 2021-12-04 03:50
 Vind från NNV
Vind: NNV 9 km/h
Temperatur: 13°C
Daggpunkt: 11°C
Luftfuktighet: 88%
Barometer: 1018 hPa
Moln: Övervägande molnigt
Sikt: 10 km
Molninformation: Övervägande molnigt 914 m
2021/12/04 02:50 LTAI 040250Z 34005KT 9999 BKN030 13/11 Q1018 NOSIG
Övervägande molnigt
Övervägande molnigt
  Visa detaljer för Antalya
Avstånd från stationen: VSV 6074kmKJFK - New Your (JFK)
Uppdaterad: 2021-12-04 03:51
 Vind från NV
Vind: NV 20 km/h
Temperatur: 4°C
Vindavkylning: -1°C
Daggpunkt: -6°C
Luftfuktighet: 48%
Barometer: 1017.9 hPa
Moln: Delvis molnigt
Sikt: 16 km
Molninformation: Delvis molnigt 3962 m
2021/12/04 02:51 KJFK 040251Z 32011KT 10SM SCT130 04/M06 A3006 RMK AO2 SLP180 T00391061 50001
Delvis molnigt
Delvis molnigt
  Visa detaljer för New Your (JFK)
Avstånd från stationen: VSV 8848kmKLAX - Los Angeles International Airport
Uppdaterad: 2021-12-04 03:53
 Vind från VSV
Vind: VSV 11 km/h
Temperatur: 14°C
Daggpunkt: 11°C
Luftfuktighet: 82%
Barometer: 1019 hPa
Moln: Delvis molnigt
Sikt: 16 km
Molninformation: Delvis molnigt 427 m
2021/12/04 02:53 KLAX 040253Z 25006KT 10SM SCT014 14/11 A3009 RMK AO2 SLP187 T01390106 51010
Delvis molnigt
Delvis molnigt
  Visa detaljer för Los Angeles International Airport
Avstånd från stationen: SO 4968kmOMDB - Dubai International Airport
Uppdaterad: 2021-12-04 04:00
 Vind från S
Vind: S 9 km/h
Temperatur: 22°C
Daggpunkt: 16°C
Luftfuktighet: 69%
Barometer: 1017 hPa
Moln: Delvis molnigt
Sikt: 10 km
Molninformation: Delvis molnigt 1219 m
2021/12/04 03:00 OMDB 040300Z 19005KT 9999 SCT040 22/16 Q1017 NOSIG
Delvis molnigt
Delvis molnigt
  Visa detaljer för Dubai International Airport
Avstånd från stationen: OSO 8570kmRJTT - Tokyo International Airport
Uppdaterad: 2021-12-04 04:30
 Vind från ONO
Vind: ONO 9 km/h
Temperatur: 14°C
Daggpunkt: 4°C
Luftfuktighet: 51%
Barometer: 1010 hPa
Moln: Några få moln
Sikt: 10 km
Molninformation: Några få moln 914 m
2021/12/04 03:30 RJTT 040330Z 06005KT 9999 FEW030 14/04 Q1010 BECMG 18006KT RMK 1CU030 A2982
Några få moln
Några få moln
  Visa detaljer för Tokyo International Airport
Avstånd från stationen: OSO 7125kmZBAA - Peking (Beijing Capital)
Uppdaterad: 2021-12-04 04:30
 Vind från varierande
Vind: varierande 4 km/h
Temperatur: 10°C
Daggpunkt: -6°C
Luftfuktighet: 32%
Barometer: 1027 hPa
Summering: Klart
Sikt: mer än 10 km
2021/12/04 03:30 ZBAA 040330Z VRB01MPS CAVOK 10/M06 Q1027 NOSIG
Klart
Klart
  Visa detaljer för Peking (Beijing Capital)
VÄDER KURIOSA -  AstronomyOur moon is moving away from the earth at about 3cm per year.